< < Back
Terminal Aerodrome Forecast


Current Version              Previous Versions:   1  2  3  4  5  6  7  8  9  

Terminal Aerodrome Forecast

622
FTUS42 KGSP 171200 AAA
TAFCLT
TAF AMD
KCLT 171216Z 1712/1812 02007KT P6SM OVC005
      TEMPO 1713/1714 BKN008
     FM171400 03006KT P6SM BKN016
     FM171800 02005KT P6SM BKN060
     FM180200 04006KT P6SM BKN020=



Latest METAR

491
SAUS70 KWBC 171300 RRG
MTRCLT
METAR KCLT 171252Z 01008KT 7SM OVC005 18/17 A3000 RMK AO2 SLP152
T01830167


USA.gov is the U.S. government's official web portal to all federal, state and local government web resources and services.